Time;durP1;ratioP1;P1;durP2;ratioP2;P2;SDS_P1;SDS_P2;PMS_P1;PMS_P2;Temp;Humidity;BMP_temperature;BMP_pressure;BME280_temperature;BME280_humidity;BME280_pressure;Samples;Min_cycle;Max_cycle;Signal;HPM_P1;HPM_P2
2023/08/30 00:00:55;;;;;;;32.75;25.90;;;15.20;99.90;;;;;;4839330;29;20568;-68
2023/08/30 00:03:21;;;;;;;31.63;26.25;;;15.20;99.90;;;;;;4853480;29;20194;-67
2023/08/30 00:05:46;;;;;;;31.80;25.83;;;15.10;99.90;;;;;;4838171;29;20202;-67
2023/08/30 00:08:17;;;;;;;29.60;25.65;;;15.10;99.90;;;;;;4839700;29;20203;-67
2023/08/30 00:10:44;;;;;;;33.80;25.17;;;15.10;99.90;;;;;;4833784;29;20198;-66
2023/08/30 00:13:10;;;;;;;35.90;26.10;;;15.00;99.90;;;;;;4841251;29;20234;-68
2023/08/30 00:15:36;;;;;;;32.08;26.00;;;15.00;99.90;;;;;;4838768;29;20676;-67
2023/08/30 00:18:02;;;;;;;34.53;26.63;;;15.00;99.90;;;;;;4843030;29;20683;-68
2023/08/30 00:20:28;;;;;;;30.02;25.25;;;15.00;99.90;;;;;;4838265;29;20194;-68
2023/08/30 00:22:54;;;;;;;33.90;25.30;;;14.90;99.90;;;;;;4843226;29;20205;-68
2023/08/30 00:25:20;;;;;;;29.75;24.95;;;14.90;99.90;;;;;;4836313;29;20569;-66
2023/08/30 00:27:46;;;;;;;33.25;24.10;;;14.90;99.90;;;;;;4842919;29;20189;-67
2023/08/30 00:30:12;;;;;;;32.42;24.33;;;14.90;99.90;;;;;;4835675;29;20248;-68
2023/08/30 00:32:38;;;;;;;31.15;25.58;;;14.80;99.90;;;;;;4843409;29;20233;-68
2023/08/30 00:35:04;;;;;;;33.88;26.08;;;14.80;99.90;;;;;;4825873;29;20554;-68
2023/08/30 00:37:31;;;;;;;30.67;25.77;;;14.80;99.90;;;;;;4841801;29;20201;-69
2023/08/30 00:39:57;;;;;;;35.03;26.75;;;14.80;99.90;;;;;;4835292;29;20195;-67
2023/08/30 00:42:23;;;;;;;30.98;25.63;;;14.70;99.90;;;;;;4852724;29;20198;-68
2023/08/30 00:44:49;;;;;;;32.50;26.42;;;14.70;99.90;;;;;;4840136;29;20664;-68
2023/08/30 00:47:15;;;;;;;34.50;26.67;;;14.70;99.90;;;;;;4840743;29;20207;-68
2023/08/30 00:49:41;;;;;;;35.75;26.90;;;14.70;99.90;;;;;;4837735;29;20659;-68
2023/08/30 00:52:09;;;;;;;35.25;27.33;;;14.70;99.90;;;;;;4841525;29;20282;-68
2023/08/30 00:54:38;;;;;;;31.92;26.60;;;14.70;99.90;;;;;;4838708;29;20214;-68
2023/08/30 00:57:05;;;;;;;33.00;26.35;;;14.60;99.90;;;;;;4847860;29;20207;-67
2023/08/30 00:59:33;;;;;;;34.53;25.70;;;14.60;99.90;;;;;;4836945;29;20573;-68
2023/08/30 01:02:00;;;;;;;36.13;25.92;;;14.60;99.90;;;;;;4842120;29;20217;-69
2023/08/30 01:04:27;;;;;;;31.77;25.27;;;14.60;99.90;;;;;;4854679;29;20195;-69
2023/08/30 01:06:53;;;;;;;29.58;23.77;;;14.60;99.90;;;;;;4842313;29;20274;-68
2023/08/30 01:09:19;;;;;;;35.50;23.88;;;14.50;99.90;;;;;;4841806;29;20211;-68
2023/08/30 01:11:52;;;;;;;27.13;23.23;;;14.50;99.90;;;;;;4842817;29;20202;-69
2023/08/30 01:14:25;;;;;;;28.77;21.73;;;14.50;99.90;;;;;;4853137;29;20204;-69
2023/08/30 01:16:52;;;;;;;29.95;21.20;;;14.50;99.90;;;;;;4839833;29;20222;-70
2023/08/30 01:19:27;;;;;;;29.63;21.15;;;14.50;99.90;;;;;;4838284;29;20195;-70
2023/08/30 01:22:06;;;;;;;25.95;21.10;;;14.50;99.90;;;;;;4841022;29;20197;-68
2023/08/30 01:24:44;;;;;;;25.42;20.38;;;14.50;99.90;;;;;;4835559;29;20223;-67
2023/08/30 01:27:15;;;;;;;26.63;19.92;;;14.40;99.90;;;;;;4841505;29;20536;-68
2023/08/30 01:29:44;;;;;;;24.30;19.63;;;14.50;99.90;;;;;;4836209;29;20250;-69
2023/08/30 01:32:11;;;;;;;24.90;18.88;;;14.50;99.90;;;;;;4853539;29;20211;-69
2023/08/30 01:34:39;;;;;;;28.95;20.20;;;14.50;99.90;;;;;;4853252;29;20237;-69
2023/08/30 01:37:10;;;;;;;23.38;19.17;;;14.50;99.90;;;;;;4837468;29;20256;-68
2023/08/30 01:39:38;;;;;;;23.30;18.30;;;14.50;99.90;;;;;;4851061;29;20252;-68
2023/08/30 01:42:04;;;;;;;23.45;18.85;;;14.50;99.90;;;;;;4852811;29;20271;-69
2023/08/30 01:44:33;;;;;;;23.20;18.63;;;14.40;99.90;;;;;;4832918;29;20200;-69
2023/08/30 01:47:00;;;;;;;26.13;17.50;;;14.40;99.90;;;;;;4836063;29;20732;-68
2023/08/30 01:49:28;;;;;;;26.00;17.27;;;14.40;99.90;;;;;;4837006;29;20222;-69
2023/08/30 01:51:55;;;;;;;22.13;16.67;;;14.40;99.90;;;;;;4839909;29;20198;-70
2023/08/30 01:54:21;;;;;;;20.55;16.80;;;14.40;99.90;;;;;;4838411;29;20301;-69
2023/08/30 01:56:47;;;;;;;23.10;17.92;;;14.40;99.90;;;;;;4841057;29;20222;-69
2023/08/30 01:59:13;;;;;;;19.58;16.17;;;14.40;99.90;;;;;;4852512;29;20290;-69
2023/08/30 02:01:39;;;;;;;19.05;16.33;;;14.40;99.90;;;;;;4832422;29;20206;-70
2023/08/30 02:04:05;;;;;;;22.48;16.67;;;14.40;99.90;;;;;;4839943;29;20676;-69
2023/08/30 02:06:50;;;;;;;20.00;16.60;;;14.40;99.90;;;;;;4854518;29;20198;-68
2023/08/30 02:09:20;;;;;;;26.13;17.27;;;14.30;99.90;;;;;;4845075;29;20607;-69
2023/08/30 02:11:49;;;;;;;21.48;16.05;;;14.30;99.90;;;;;;4841597;29;20227;-69
2023/08/30 02:14:17;;;;;;;23.48;17.20;;;14.30;99.90;;;;;;4839144;29;20198;-69
2023/08/30 02:16:46;;;;;;;20.10;15.80;;;14.30;99.90;;;;;;4833512;29;20267;-69
2023/08/30 02:19:16;;;;;;;19.30;15.70;;;14.30;99.90;;;;;;4838097;29;20194;-69
2023/08/30 02:21:42;;;;;;;18.17;15.13;;;14.30;99.90;;;;;;4835674;29;20194;-71
2023/08/30 02:24:08;;;;;;;18.27;15.45;;;14.30;99.90;;;;;;4838887;29;20187;-69
2023/08/30 02:26:34;;;;;;;23.77;15.85;;;14.30;99.90;;;;;;4836530;29;20199;-68
2023/08/30 02:29:00;;;;;;;19.35;15.50;;;14.30;99.90;;;;;;4838524;29;20562;-69
2023/08/30 02:31:26;;;;;;;20.10;15.43;;;14.30;99.90;;;;;;4837237;29;20648;-68
2023/08/30 02:33:52;;;;;;;23.52;15.57;;;14.30;99.90;;;;;;4837529;29;20261;-69
2023/08/30 02:36:18;;;;;;;19.08;15.25;;;14.30;99.90;;;;;;4836806;29;20230;-69
2023/08/30 02:38:44;;;;;;;18.80;15.27;;;14.40;99.90;;;;;;4854474;29;20254;-68
2023/08/30 02:41:10;;;;;;;18.35;15.20;;;14.40;99.90;;;;;;4852663;29;20651;-68
2023/08/30 02:43:37;;;;;;;21.65;14.82;;;14.40;99.90;;;;;;4841582;29;20206;-68
2023/08/30 02:46:04;;;;;;;18.55;14.93;;;14.50;99.90;;;;;;4833142;29;20191;-69
2023/08/30 02:48:30;;;;;;;19.88;15.60;;;14.50;99.90;;;;;;4840285;29;20198;-68
2023/08/30 02:50:56;;;;;;;16.67;14.00;;;14.50;99.90;;;;;;4838595;29;20274;-70
2023/08/30 02:53:22;;;;;;;19.65;14.50;;;14.60;99.90;;;;;;4845740;29;20201;-69
2023/08/30 02:55:48;;;;;;;18.85;14.25;;;14.60;99.90;;;;;;4837699;29;20205;-69
2023/08/30 02:58:14;;;;;;;20.23;14.63;;;14.60;99.90;;;;;;4836828;29;20190;-69
2023/08/30 03:00:40;;;;;;;19.98;14.40;;;14.60;99.90;;;;;;4838934;29;20205;-68
2023/08/30 03:03:08;;;;;;;18.67;13.90;;;14.70;99.90;;;;;;4831006;29;20277;-68
2023/08/30 03:05:34;;;;;;;19.67;14.13;;;14.70;99.90;;;;;;4836295;29;20203;-67
2023/08/30 03:08:01;;;;;;;16.10;13.68;;;14.70;99.90;;;;;;4838825;29;20262;-67
2023/08/30 03:10:28;;;;;;;17.10;13.68;;;14.70;99.90;;;;;;4833065;29;20371;-67
2023/08/30 03:12:54;;;;;;;19.50;14.20;;;14.70;99.90;;;;;;4842439;29;20195;-68
2023/08/30 03:15:20;;;;;;;21.58;15.15;;;14.60;99.90;;;;;;4818234;29;20566;-66
2023/08/30 03:17:46;;;;;;;19.10;15.02;;;14.60;99.90;;;;;;4845339;29;20194;-67
2023/08/30 03:20:13;;;;;;;18.02;15.02;;;14.60;99.90;;;;;;4835398;29;20197;-69
2023/08/30 03:22:39;;;;;;;19.25;15.02;;;14.50;99.90;;;;;;4843175;29;20277;-67
2023/08/30 03:25:05;;;;;;;22.92;16.00;;;14.40;99.90;;;;;;4836882;29;20286;-68
2023/08/30 03:27:33;;;;;;;19.50;16.02;;;14.40;99.90;;;;;;4843181;29;20197;-67
2023/08/30 03:29:58;;;;;;;20.08;15.45;;;14.40;99.90;;;;;;4830709;29;20226;-69
2023/08/30 03:32:24;;;;;;;21.23;15.90;;;14.30;99.90;;;;;;4858012;29;20577;-67
2023/08/30 03:34:51;;;;;;;21.75;15.88;;;14.30;99.90;;;;;;4858572;29;20714;-69
2023/08/30 03:37:17;;;;;;;20.38;15.73;;;14.20;99.90;;;;;;4854014;29;20622;-69
2023/08/30 03:39:43;;;;;;;21.85;17.08;;;14.20;99.90;;;;;;4840942;29;20188;-69
2023/08/30 03:42:09;;;;;;;25.20;17.25;;;14.20;99.90;;;;;;4843824;29;20191;-69
2023/08/30 03:44:37;;;;;;;24.80;18.20;;;14.10;99.90;;;;;;4844381;29;20195;-68
2023/08/30 03:47:03;;;;;;;23.38;17.23;;;14.10;99.90;;;;;;4868985;29;20720;-69
2023/08/30 03:49:29;;;;;;;23.70;17.75;;;14.00;99.90;;;;;;4845886;29;20223;-69
2023/08/30 03:51:55;;;;;;;23.88;18.08;;;14.00;99.90;;;;;;4844369;29;20203;-68
2023/08/30 03:54:22;;;;;;;25.13;18.65;;;14.00;99.90;;;;;;4821555;29;20203;-69
2023/08/30 03:56:48;;;;;;;24.77;17.83;;;13.90;99.90;;;;;;4843042;29;20190;-68
2023/08/30 03:59:14;;;;;;;26.92;18.40;;;13.90;99.90;;;;;;4838123;29;20200;-68
2023/08/30 04:01:40;;;;;;;24.90;19.55;;;13.90;99.90;;;;;;4843545;29;20195;-68
2023/08/30 04:04:06;;;;;;;21.42;18.48;;;13.90;99.90;;;;;;4841479;29;20195;-69
2023/08/30 04:06:32;;;;;;;24.55;18.35;;;13.90;99.90;;;;;;4855974;29;20202;-69
2023/08/30 04:08:58;;;;;;;22.88;18.23;;;13.80;99.90;;;;;;4840340;29;20249;-68
2023/08/30 04:11:24;;;;;;;27.30;18.83;;;13.80;99.90;;;;;;4855340;29;20207;-69
2023/08/30 04:13:50;;;;;;;23.98;18.45;;;13.80;99.90;;;;;;4856689;29;20195;-68
2023/08/30 04:16:16;;;;;;;25.35;17.30;;;13.80;99.90;;;;;;4843601;29;20632;-68
2023/08/30 04:18:42;;;;;;;28.25;19.15;;;13.80;99.90;;;;;;4842774;29;21560;-69
2023/08/30 04:21:08;;;;;;;25.90;18.55;;;13.70;99.90;;;;;;4826300;29;20224;-68
2023/08/30 04:23:35;;;;;;;22.08;17.48;;;13.70;99.90;;;;;;4844039;29;20238;-68
2023/08/30 04:26:01;;;;;;;22.75;17.05;;;13.80;99.90;;;;;;4839667;29;20193;-68
2023/08/30 04:28:27;;;;;;;21.98;16.45;;;13.80;99.90;;;;;;4841046;29;20192;-68
2023/08/30 04:30:54;;;;;;;23.63;17.25;;;13.80;99.90;;;;;;4839291;29;20608;-68
2023/08/30 04:33:20;;;;;;;21.40;16.48;;;13.80;99.90;;;;;;4838558;29;20239;-69
2023/08/30 04:35:54;;;;;;;20.35;16.33;;;13.80;99.90;;;;;;4838851;29;20199;-69
2023/08/30 04:38:20;;;;;;;21.77;15.90;;;13.80;99.90;;;;;;4843130;29;20285;-67
2023/08/30 04:40:48;;;;;;;22.63;16.17;;;13.80;99.90;;;;;;4838289;29;20271;-68
2023/08/30 04:43:14;;;;;;;22.05;15.52;;;13.80;99.90;;;;;;4828084;29;20651;-68
2023/08/30 04:45:41;;;;;;;21.33;16.08;;;13.80;99.90;;;;;;4854845;29;20198;-67
2023/08/30 04:48:07;;;;;;;20.05;16.02;;;13.80;99.90;;;;;;4838538;29;20211;-69
2023/08/30 04:50:34;;;;;;;21.02;15.40;;;13.80;99.90;;;;;;4832243;29;20229;-67
2023/08/30 04:53:01;;;;;;;21.50;15.77;;;13.80;99.90;;;;;;4839827;29;20631;-67
2023/08/30 04:55:30;;;;;;;23.17;15.73;;;13.80;99.90;;;;;;4824184;29;20223;-68
2023/08/30 04:57:58;;;;;;;22.77;15.77;;;13.80;99.90;;;;;;4854584;29;20266;-69
2023/08/30 05:00:27;;;;;;;19.58;14.70;;;13.80;99.90;;;;;;4836307;29;20198;-67
2023/08/30 05:02:53;;;;;;;20.48;14.57;;;13.90;99.90;;;;;;4856893;29;20197;-68
2023/08/30 05:05:19;;;;;;;19.55;15.43;;;13.90;99.90;;;;;;4852899;29;20195;-69
2023/08/30 05:07:45;;;;;;;18.67;14.68;;;13.90;99.90;;;;;;4826429;29;20203;-66
2023/08/30 05:10:13;;;;;;;19.05;14.60;;;13.90;99.90;;;;;;4836021;29;20230;-66
2023/08/30 05:12:39;;;;;;;19.05;14.68;;;13.90;99.90;;;;;;4851437;29;20202;-65
2023/08/30 05:15:06;;;;;;;20.27;14.73;;;13.90;99.90;;;;;;4839536;29;20191;-67
2023/08/30 05:17:32;;;;;;;18.40;14.68;;;14.00;99.90;;;;;;4825135;29;20193;-69
2023/08/30 05:19:59;;;;;;;20.27;14.48;;;14.00;99.90;;;;;;4834990;29;20268;-67
2023/08/30 05:22:25;;;;;;;18.92;14.32;;;14.10;99.90;;;;;;4841518;29;20675;-66
2023/08/30 05:24:51;;;;;;;20.80;14.90;;;14.10;99.90;;;;;;4838056;29;20350;-68
2023/08/30 05:27:18;;;;;;;18.77;14.40;;;14.20;99.90;;;;;;4842409;29;20194;-67
2023/08/30 05:29:44;;;;;;;22.00;15.07;;;14.20;99.90;;;;;;4838776;29;20258;-67
2023/08/30 05:32:10;;;;;;;18.40;13.43;;;14.30;99.90;;;;;;4841504;29;20279;-68
2023/08/30 05:34:46;;;;;;;18.42;13.48;;;14.40;99.90;;;;;;4838543;29;20285;-67
2023/08/30 05:37:32;;;;;;;18.83;13.70;;;14.50;99.90;;;;;;4831647;29;20234;-68
2023/08/30 05:40:04;;;;;;;19.73;13.55;;;14.50;99.90;;;;;;4849932;29;20254;-67
2023/08/30 05:42:30;;;;;;;18.88;13.77;;;14.50;99.90;;;;;;4840008;29;20309;-65
2023/08/30 05:44:56;;;;;;;16.60;12.90;;;14.60;99.90;;;;;;4837569;29;20286;-67
2023/08/30 05:47:22;;;;;;;16.98;13.35;;;14.70;99.90;;;;;;4850574;29;20195;-67
2023/08/30 05:49:49;;;;;;;18.90;13.68;;;14.70;99.90;;;;;;4838085;29;20222;-68
2023/08/30 05:52:16;;;;;;;19.85;13.57;;;14.80;99.90;;;;;;4839383;29;20215;-68
2023/08/30 05:54:42;;;;;;;16.88;12.73;;;14.80;99.90;;;;;;4823308;29;20202;-68
2023/08/30 05:57:09;;;;;;;19.67;14.30;;;14.90;99.90;;;;;;4839475;29;20267;-70
2023/08/30 05:59:36;;;;;;;20.50;14.52;;;14.90;99.90;;;;;;4832968;29;20294;-66
2023/08/30 06:02:02;;;;;;;21.58;14.88;;;14.90;99.90;;;;;;4854133;29;20198;-68
2023/08/30 06:04:28;;;;;;;18.63;14.30;;;15.00;99.90;;;;;;4837028;29;20198;-66
2023/08/30 06:06:54;;;;;;;21.02;14.40;;;15.00;99.90;;;;;;4830057;29;20204;-67
2023/08/30 06:09:20;;;;;;;21.98;14.38;;;15.10;99.90;;;;;;4848641;29;20227;-66
2023/08/30 06:11:46;;;;;;;25.55;14.43;;;15.20;99.90;;;;;;4837581;29;21119;-67
2023/08/30 06:14:12;;;;;;;18.60;14.63;;;15.20;99.90;;;;;;4835342;29;20182;-69
2023/08/30 06:16:43;;;;;;;21.67;13.50;;;15.20;99.90;;;;;;4830372;29;20844;-65
2023/08/30 06:19:10;;;;;;;21.33;13.98;;;15.30;99.90;;;;;;4833605;29;20202;-71
2023/08/30 06:21:36;;;;;;;18.20;14.02;;;15.40;99.90;;;;;;4851488;29;20202;-66
2023/08/30 06:24:03;;;;;;;19.27;13.80;;;15.40;99.90;;;;;;4840008;29;20199;-66
2023/08/30 06:26:29;;;;;;;17.08;13.50;;;15.50;99.90;;;;;;4838835;29;20659;-73
2023/08/30 06:28:55;;;;;;;20.88;14.27;;;15.50;99.90;;;;;;4839742;29;20275;-61
2023/08/30 06:31:21;;;;;;;18.58;14.32;;;15.60;99.90;;;;;;4837691;29;20575;-65
2023/08/30 06:33:48;;;;;;;21.08;13.88;;;15.60;99.90;;;;;;4840586;29;20238;-66
2023/08/30 06:36:16;;;;;;;18.20;13.38;;;15.70;99.90;;;;;;4853900;29;20209;-66
2023/08/30 06:38:43;;;;;;;19.35;13.10;;;15.80;99.90;;;;;;4839964;29;20285;-69
2023/08/30 06:41:09;;;;;;;19.77;13.75;;;15.80;99.90;;;;;;4839072;29;20208;-66
2023/08/30 06:43:35;;;;;;;18.08;13.77;;;15.90;99.90;;;;;;4840814;29;20198;-68
2023/08/30 06:46:02;;;;;;;21.10;12.95;;;16.00;99.90;;;;;;4850303;29;20260;-67
2023/08/30 06:48:27;;;;;;;19.75;13.45;;;16.00;99.90;;;;;;4841102;29;20262;-66
2023/08/30 06:50:57;;;;;;;18.25;13.55;;;16.10;99.90;;;;;;4834749;29;20230;-69
2023/08/30 06:53:23;;;;;;;20.52;13.10;;;16.10;99.90;;;;;;4841227;29;20182;-68
2023/08/30 06:56:02;;;;;;;17.83;13.57;;;16.10;99.90;;;;;;4834508;29;20202;-67
2023/08/30 06:58:28;;;;;;;17.95;13.88;;;16.10;99.90;;;;;;4837577;29;20276;-66
2023/08/30 07:00:56;;;;;;;25.58;13.25;;;16.20;99.90;;;;;;4852965;29;20222;-69
2023/08/30 07:03:22;;;;;;;19.95;12.15;;;16.20;99.90;;;;;;4841258;29;20191;-67
2023/08/30 07:05:50;;;;;;;17.77;11.35;;;16.30;99.90;;;;;;4833554;29;20195;-65
2023/08/30 07:08:16;;;;;;;15.45;11.52;;;16.30;99.90;;;;;;4840153;29;20198;-64
2023/08/30 07:10:42;;;;;;;16.00;11.00;;;16.40;99.90;;;;;;4838999;29;20226;-62
2023/08/30 07:13:11;;;;;;;15.27;11.35;;;16.40;99.90;;;;;;4839609;29;20190;-64
2023/08/30 07:15:41;;;;;;;37.53;25.52;;;16.40;99.90;;;;;;4838020;29;20190;-63
2023/08/30 07:18:08;;;;;;;16.90;11.68;;;16.50;99.90;;;;;;4839603;29;20313;-63
2023/08/30 07:20:36;;;;;;;15.68;10.68;;;16.50;99.90;;;;;;4835266;29;20195;-63
2023/08/30 07:23:03;;;;;;;13.07;10.13;;;16.40;99.90;;;;;;4841050;29;20199;-63
2023/08/30 07:25:36;;;;;;;15.80;11.10;;;16.40;99.90;;;;;;4835257;29;20187;-63
2023/08/30 07:28:03;;;;;;;19.95;11.18;;;16.40;99.90;;;;;;4839757;29;20190;-62
2023/08/30 07:30:29;;;;;;;18.38;10.85;;;16.40;99.90;;;;;;4834969;29;20694;-62
2023/08/30 07:32:56;;;;;;;17.25;11.13;;;16.40;99.90;;;;;;4841345;29;20282;-64
2023/08/30 07:35:22;;;;;;;19.88;11.00;;;16.50;99.90;;;;;;4834785;29;20266;-62
2023/08/30 07:37:48;;;;;;;20.50;10.88;;;16.50;99.90;;;;;;4840216;29;20191;-63
2023/08/30 07:40:14;;;;;;;15.52;10.75;;;16.60;99.90;;;;;;4851405;29;20198;-63
2023/08/30 07:42:40;;;;;;;16.90;11.40;;;16.60;99.90;;;;;;4840488;29;20242;-63
2023/08/30 07:45:07;;;;;;;16.25;11.18;;;16.70;99.90;;;;;;4820248;29;20199;-62
2023/08/30 07:47:32;;;;;;;14.10;10.20;;;16.80;99.90;;;;;;4844281;29;20198;-64
2023/08/30 07:49:58;;;;;;;15.45;10.20;;;16.90;99.90;;;;;;4836326;29;20224;-62
2023/08/30 07:52:24;;;;;;;12.90;9.40;;;17.10;99.90;;;;;;4838741;29;20194;-65
2023/08/30 07:54:50;;;;;;;16.50;9.82;;;17.20;99.90;;;;;;4837336;29;20194;-63
2023/08/30 07:57:16;;;;;;;13.35;9.50;;;17.40;99.90;;;;;;4838316;29;20205;-65
2023/08/30 07:59:42;;;;;;;15.68;9.00;;;17.60;99.90;;;;;;4838399;29;20222;-66
2023/08/30 08:02:08;;;;;;;14.48;9.65;;;17.70;99.90;;;;;;4840687;29;20199;-68
2023/08/30 08:04:35;;;;;;;13.60;8.70;;;17.80;99.90;;;;;;4843250;29;20640;-68
2023/08/30 08:07:02;;;;;;;17.15;9.13;;;17.90;99.90;;;;;;4843552;29;20201;-67
2023/08/30 08:09:28;;;;;;;16.00;9.60;;;18.00;99.90;;;;;;4840407;29;20305;-65
2023/08/30 08:11:56;;;;;;;13.65;9.00;;;18.10;99.90;;;;;;4856170;29;20195;-66
2023/08/30 08:14:24;;;;;;;14.60;8.98;;;18.20;99.90;;;;;;4840397;29;20247;-67
2023/08/30 08:16:50;;;;;;;12.00;9.10;;;18.40;99.90;;;;;;4852670;29;20222;-65
2023/08/30 08:19:16;;;;;;;14.00;8.93;;;18.50;99.90;;;;;;4840927;29;20206;-68
2023/08/30 08:21:42;;;;;;;17.48;10.18;;;18.60;99.90;;;;;;4839618;29;20194;-66
2023/08/30 08:24:08;;;;;;;15.35;9.10;;;18.70;99.90;;;;;;4840587;29;20267;-65
2023/08/30 08:26:34;;;;;;;13.75;9.50;;;18.70;99.90;;;;;;4855862;29;20237;-66
2023/08/30 08:29:00;;;;;;;14.98;9.98;;;18.80;99.90;;;;;;4838975;29;20223;-66
2023/08/30 08:31:27;;;;;;;16.92;10.93;;;18.90;99.90;;;;;;4852113;29;20198;-67
2023/08/30 08:34:07;;;;;;;14.18;10.18;;;19.00;99.90;;;;;;4837468;29;20241;-68
2023/08/30 08:36:33;;;;;;;14.52;9.80;;;19.00;99.90;;;;;;4834601;29;20183;-67
2023/08/30 08:38:59;;;;;;;15.38;11.10;;;19.00;99.90;;;;;;4840276;29;20195;-66
2023/08/30 08:41:32;;;;;;;15.27;9.90;;;18.90;99.90;;;;;;4838876;29;20201;-66
2023/08/30 08:44:00;;;;;;;16.60;9.85;;;19.00;99.90;;;;;;4837286;29;20286;-66
2023/08/30 08:46:28;;;;;;;14.73;9.73;;;18.90;99.90;;;;;;4839008;29;20285;-65
2023/08/30 08:48:57;;;;;;;18.13;10.73;;;19.00;99.90;;;;;;4855810;29;20218;-66
2023/08/30 08:51:24;;;;;;;18.38;9.73;;;19.00;99.90;;;;;;4839707;29;20221;-66
2023/08/30 08:53:50;;;;;;;16.02;10.27;;;19.20;99.90;;;;;;4840952;29;20659;-65
2023/08/30 08:56:17;;;;;;;16.10;9.60;;;19.20;99.90;;;;;;4839879;29;20195;-65
2023/08/30 08:58:43;;;;;;;18.27;9.88;;;19.30;99.90;;;;;;4840224;29;20301;-66
2023/08/30 09:01:10;;;;;;;15.38;9.70;;;19.40;99.90;;;;;;4819827;29;20260;-66
2023/08/30 09:03:37;;;;;;;13.55;9.55;;;19.30;99.90;;;;;;4844252;29;20198;-67
2023/08/30 09:06:03;;;;;;;15.07;9.15;;;19.30;99.90;;;;;;4839821;29;20190;-66
2023/08/30 09:08:29;;;;;;;14.15;9.80;;;19.30;99.90;;;;;;4843027;29;20237;-64
2023/08/30 09:10:55;;;;;;;16.10;9.73;;;19.30;99.90;;;;;;4838546;29;20253;-74
2023/08/30 09:13:22;;;;;;;13.10;9.48;;;19.20;99.90;;;;;;4841597;29;20198;-73
2023/08/30 09:15:49;;;;;;;14.45;9.43;;;19.20;99.90;;;;;;4835608;29;20559;-73
2023/08/30 09:18:17;;;;;;;14.48;9.60;;;19.10;99.90;;;;;;4842539;29;20210;-66
2023/08/30 09:20:43;;;;;;;17.08;9.80;;;19.10;99.90;;;;;;4837093;29;20191;-66
2023/08/30 09:23:22;;;;;;;12.95;9.13;;;19.10;99.90;;;;;;4839935;29;20202;-67
2023/08/30 09:25:54;;;;;;;15.13;9.27;;;19.00;99.90;;;;;;4836484;29;20434;-66
2023/08/30 09:28:21;;;;;;;14.32;9.80;;;19.00;99.90;;;;;;4840973;29;20197;-67
2023/08/30 09:30:51;;;;;;;19.30;10.07;;;19.00;99.90;;;;;;4836184;29;20229;-67
2023/08/30 09:33:30;;;;;;;13.73;8.95;;;18.90;99.90;;;;;;4839171;29;20249;-68
2023/08/30 09:35:56;;;;;;;13.27;8.55;;;18.90;99.90;;;;;;4832908;29;20191;-67
2023/08/30 09:38:22;;;;;;;15.13;9.10;;;18.90;99.90;;;;;;4841515;29;20201;-67
2023/08/30 09:40:48;;;;;;;13.40;8.95;;;18.90;99.90;;;;;;4836157;29;20258;-67
2023/08/30 09:43:18;;;;;;;11.82;8.65;;;18.80;99.90;;;;;;4840190;29;20635;-65
2023/08/30 09:45:43;;;;;;;12.95;8.63;;;18.80;99.90;;;;;;4837990;29;20765;-68
2023/08/30 09:48:10;;;;;;;16.17;9.20;;;18.80;99.90;;;;;;4838610;29;20297;-66
2023/08/30 09:50:36;;;;;;;12.35;8.50;;;18.80;99.90;;;;;;4831512;29;20711;-66
2023/08/30 09:53:09;;;;;;;10.77;8.05;;;18.80;99.90;;;;;;4850992;29;20195;-67
2023/08/30 09:55:35;;;;;;;12.32;9.02;;;18.80;99.90;;;;;;4852078;29;20250;-67
2023/08/30 09:58:05;;;;;;;13.45;8.63;;;18.80;99.90;;;;;;4839892;29;20201;-65
2023/08/30 10:00:33;;;;;;;12.48;8.93;;;18.90;99.90;;;;;;4844834;29;20190;-67
2023/08/30 10:03:00;;;;;;;13.20;8.68;;;18.90;99.90;;;;;;4839549;29;20214;-67
2023/08/30 10:05:26;;;;;;;11.95;8.60;;;18.80;99.90;;;;;;4833048;29;20211;-66
2023/08/30 10:07:53;;;;;;;12.40;8.63;;;18.80;99.90;;;;;;4839460;29;20187;-66
2023/08/30 10:10:20;;;;;;;16.17;8.90;;;18.80;99.90;;;;;;4849397;29;20790;-66
2023/08/30 10:12:46;;;;;;;13.38;9.85;;;19.00;99.90;;;;;;4841339;29;20215;-66
2023/08/30 10:15:12;;;;;;;14.98;9.00;;;19.10;99.90;;;;;;4850626;29;20191;-66
2023/08/30 10:17:44;;;;;;;17.38;9.13;;;19.10;99.90;;;;;;4839876;29;20194;-66
2023/08/30 10:20:12;;;;;;;12.50;7.97;;;19.30;99.90;;;;;;4835922;29;20198;-67
2023/08/30 10:22:39;;;;;;;12.68;8.30;;;19.20;99.90;;;;;;4849192;29;20202;-65
2023/08/30 10:25:16;;;;;;;14.10;8.32;;;19.30;99.90;;;;;;4852217;29;20198;-63
2023/08/30 10:27:46;;;;;;;13.32;8.40;;;19.30;99.90;;;;;;4849790;29;20530;-65
2023/08/30 10:30:13;;;;;;;17.70;8.75;;;19.40;99.90;;;;;;4816522;29;20219;-67
2023/08/30 10:32:41;;;;;;;15.00;8.07;;;19.50;99.90;;;;;;4840980;29;20239;-65
2023/08/30 10:35:10;;;;;;;12.68;8.45;;;19.60;99.90;;;;;;4834452;29;20639;-65
2023/08/30 10:37:35;;;;;;;12.93;8.85;;;19.60;99.90;;;;;;4840868;29;20200;-65
2023/08/30 10:40:05;;;;;;;12.27;8.27;;;19.60;99.90;;;;;;4835953;29;20279;-66
2023/08/30 10:42:32;;;;;;;11.43;7.47;;;19.70;99.90;;;;;;4840729;29;20290;-65
2023/08/30 10:45:04;;;;;;;16.77;8.13;;;19.70;99.90;;;;;;4833769;29;20218;-64
2023/08/30 10:47:32;;;;;;;14.98;9.70;;;19.80;99.90;;;;;;4840297;29;20264;-66
2023/08/30 10:50:10;;;;;;;11.90;8.57;;;19.80;99.90;;;;;;4838112;29;20240;-65
2023/08/30 10:52:36;;;;;;;14.88;9.10;;;19.90;99.90;;;;;;4852796;29;20342;-64
2023/08/30 10:55:13;;;;;;;12.20;8.65;;;20.00;99.90;;;;;;4838014;29;20194;-65
2023/08/30 10:57:45;;;;;;;16.17;9.88;;;20.00;99.90;;;;;;4850969;29;20628;-66
2023/08/30 11:00:17;;;;;;;17.13;9.25;;;20.00;99.90;;;;;;4835055;29;20286;-68
2023/08/30 11:02:48;;;;;;;15.63;8.95;;;20.10;99.90;;;;;;4837133;29;20198;-65
2023/08/30 11:05:16;;;;;;;13.00;7.55;;;20.10;99.90;;;;;;4834943;29;20218;-65
2023/08/30 11:07:46;;;;;;;12.13;7.68;;;20.10;99.90;;;;;;4837169;29;20202;-66
2023/08/30 11:10:13;;;;;;;10.23;7.10;;;20.10;99.90;;;;;;4845808;29;20254;-65
2023/08/30 11:12:44;;;;;;;11.00;6.53;;;20.10;99.90;;;;;;4854022;29;20274;-65
2023/08/30 11:15:11;;;;;;;9.65;6.65;;;20.20;99.90;;;;;;4836198;29;20720;-65
2023/08/30 11:17:37;;;;;;;9.38;6.50;;;20.20;99.90;;;;;;4837907;29;20617;-67
2023/08/30 11:20:08;;;;;;;7.97;5.68;;;20.30;99.90;;;;;;4834650;29;20195;-65
2023/08/30 11:22:43;;;;;;;9.02;6.38;;;20.40;99.90;;;;;;4838270;29;20538;-67
2023/08/30 11:25:10;;;;;;;9.98;5.28;;;20.50;99.90;;;;;;4834389;29;20225;-65
2023/08/30 11:27:38;;;;;;;9.35;5.78;;;20.60;99.90;;;;;;4840088;29;20747;-65
2023/08/30 11:30:08;;;;;;;11.98;6.72;;;20.70;99.90;;;;;;4833451;29;20305;-65
2023/08/30 11:32:39;;;;;;;12.30;6.30;;;20.80;99.90;;;;;;4839339;29;20255;-67
2023/08/30 11:35:06;;;;;;;8.27;6.18;;;20.80;99.90;;;;;;4834162;29;20201;-66
2023/08/30 11:37:33;;;;;;;8.25;6.15;;;20.90;99.90;;;;;;4850709;29;20540;-66
2023/08/30 11:40:00;;;;;;;8.93;6.13;;;20.80;99.90;;;;;;4838646;29;20557;-67
2023/08/30 11:42:27;;;;;;;10.20;6.95;;;20.80;99.90;;;;;;4843915;29;20230;-66
2023/08/30 11:44:53;;;;;;;7.88;5.93;;;20.80;99.90;;;;;;4838338;29;20195;-64
2023/08/30 11:47:23;;;;;;;8.07;5.70;;;20.80;99.90;;;;;;4840458;29;20546;-68
2023/08/30 11:49:51;;;;;;;8.27;5.60;;;20.70;99.90;;;;;;4840394;29;20248;-65
2023/08/30 11:52:19;;;;;;;7.40;5.32;;;20.70;99.90;;;;;;4853986;29;20230;-65
2023/08/30 11:54:47;;;;;;;6.93;5.15;;;20.60;99.90;;;;;;4838642;29;20222;-65
2023/08/30 11:57:13;;;;;;;7.38;4.93;;;20.50;99.90;;;;;;4841543;29;20198;-65
2023/08/30 11:59:39;;;;;;;7.75;4.80;;;20.50;99.90;;;;;;4841407;29;20219;-64
2023/08/30 12:02:07;;;;;;;8.07;5.40;;;20.50;99.90;;;;;;4842518;29;20198;-65
2023/08/30 12:04:39;;;;;;;7.13;4.70;;;20.50;99.90;;;;;;4841154;29;20179;-66
2023/08/30 12:07:05;;;;;;;8.38;4.97;;;20.50;99.90;;;;;;4836086;29;20194;-67
2023/08/30 12:09:32;;;;;;;7.75;4.65;;;20.50;99.90;;;;;;4841131;29;20230;-66
2023/08/30 12:12:13;;;;;;;6.95;5.15;;;20.40;99.90;;;;;;4842363;29;20638;-66
2023/08/30 12:14:39;;;;;;;8.25;5.68;;;20.40;99.90;;;;;;4828656;29;20187;-67
2023/08/30 12:17:08;;;;;;;8.23;5.47;;;20.30;99.90;;;;;;4843111;29;20205;-66
2023/08/30 12:19:34;;;;;;;11.20;7.53;;;20.30;99.90;;;;;;4839236;29;20191;-67
2023/08/30 12:22:04;;;;;;;9.32;5.85;;;20.10;99.90;;;;;;4842359;29;20191;-65
2023/08/30 12:24:45;;;;;;;10.73;6.63;;;20.00;99.90;;;;;;4841994;29;20230;-65
2023/08/30 12:27:12;;;;;;;12.43;6.57;;;19.80;99.90;;;;;;4842075;29;20210;-66
2023/08/30 12:29:39;;;;;;;10.52;6.07;;;19.70;99.90;;;;;;4840283;29;20748;-67
2023/08/30 12:32:05;;;;;;;12.07;7.45;;;19.60;99.90;;;;;;4841492;29;20198;-66